createdAt,value
2019-01-04T17:20:21.897Z,15.67
2019-01-04T17:22:50.231Z,16.33
2019-01-04T17:25:18.702Z,15.60
2019-01-04T17:27:47.008Z,16.70
2019-01-04T17:30:15.345Z,17.00
2019-01-04T17:32:44.011Z,15.53
2019-01-04T17:35:12.342Z,16.87
2019-01-04T17:37:40.655Z,17.23
2019-01-04T17:40:09.650Z,21.40
2019-01-04T17:42:37.969Z,18.80
2019-01-04T17:45:07.542Z,21.60
2019-01-04T17:47:35.856Z,17.37
2019-01-04T17:50:04.918Z,18.50
2019-01-04T17:52:33.229Z,17.97
2019-01-04T17:55:01.558Z,20.10
2019-01-04T17:57:29.863Z,20.20
2019-01-04T17:59:58.190Z,18.97
2019-01-04T18:02:26.500Z,17.60
2019-01-04T18:04:54.832Z,18.53
2019-01-04T18:07:23.146Z,19.30
2019-01-04T18:09:51.473Z,18.27
2019-01-04T18:12:19.779Z,17.70
2019-01-04T18:14:48.170Z,17.17
2019-01-04T18:17:16.827Z,16.20
2019-01-04T18:19:45.169Z,16.20
2019-01-04T18:22:13.475Z,17.90
2019-01-04T18:24:41.990Z,18.13
2019-01-04T18:27:10.312Z,17.90
2019-01-04T18:29:38.647Z,16.33
2019-01-04T18:32:07.320Z,16.40
2019-01-04T18:34:35.665Z,15.20
2019-01-04T18:37:03.985Z,15.53
2019-01-04T18:39:32.318Z,16.33
2019-01-04T18:42:00.697Z,17.10
2019-01-04T18:44:29.025Z,17.20
2019-01-04T18:46:57.336Z,15.40
2019-01-04T18:49:26.098Z,17.90
2019-01-04T18:51:54.793Z,15.30
2019-01-04T18:54:23.126Z,17.63
2019-01-04T18:56:51.575Z,17.37
2019-01-04T18:59:19.913Z,16.27
2019-01-04T19:01:48.215Z,17.30
2019-01-04T19:04:16.636Z,18.57
2019-01-04T19:06:45.085Z,18.70
2019-01-04T19:09:13.762Z,18.30
2019-01-04T19:11:43.553Z,17.43
2019-01-04T19:14:12.281Z,16.57
2019-01-04T19:16:40.592Z,17.87
2019-01-04T19:19:08.990Z,19.33
2019-01-04T19:21:37.372Z,17.60
2019-01-04T19:24:05.772Z,20.90
2019-01-04T19:26:34.189Z,19.47
2019-01-04T19:29:02.527Z,17.90
2019-01-04T19:31:30.842Z,17.57
2019-01-04T19:33:59.160Z,17.30
2019-01-04T19:36:27.714Z,19.63
2019-01-04T19:38:56.020Z,19.60
2019-01-04T19:41:24.328Z,20.10
2019-01-04T19:43:53.055Z,22.50
2019-01-04T19:46:21.376Z,21.93
2019-01-04T19:48:49.706Z,21.43
2019-01-04T19:51:18.408Z,22.47
2019-01-04T19:53:46.828Z,24.03
2019-01-04T19:56:15.203Z,21.50
2019-01-04T19:58:43.527Z,22.83
2019-01-04T20:01:11.834Z,21.47
2019-01-04T20:03:40.350Z,21.50
2019-01-04T20:06:59.057Z,30.47
2019-01-04T20:10:04.892Z,19.43
2019-01-04T20:13:14.801Z,18.40
2019-01-04T20:15:53.432Z,21.43
2019-01-04T20:18:23.471Z,21.20
2019-01-04T20:21:02.163Z,19.97
2019-01-04T20:23:47.172Z,24.30
2019-01-04T20:26:33.134Z,20.47
2019-01-04T20:29:19.593Z,20.23
2019-01-04T20:31:52.200Z,20.80
2019-01-04T20:34:37.248Z,21.27
2019-01-04T20:37:16.013Z,21.07
2019-01-04T20:39:54.512Z,21.27
2019-01-04T20:42:42.513Z,20.00
2019-01-04T20:45:30.724Z,19.70
2019-01-04T20:48:16.712Z,22.87
2019-01-04T20:50:55.358Z,21.27
2019-01-04T20:53:25.381Z,20.97
2019-01-04T20:56:13.535Z,20.43
2019-01-04T20:58:46.180Z,22.93
2019-01-04T21:01:22.028Z,23.57
2019-01-04T21:04:08.100Z,23.17
2019-01-04T21:06:40.973Z,21.47
2019-01-04T21:09:16.799Z,22.63
2019-01-04T21:12:03.115Z,23.60
2019-01-04T21:14:49.175Z,20.80
2019-01-04T21:17:19.515Z,20.30
2019-01-04T21:19:52.874Z,19.40
2019-01-04T21:22:25.798Z,22.40
2019-01-04T21:24:58.168Z,24.13
2019-01-04T21:27:30.865Z,20.60
2019-01-04T21:30:01.173Z,20.60
2019-01-04T21:32:46.115Z,20.37
2019-01-04T21:35:27.826Z,19.37
2019-01-04T21:38:06.813Z,19.10
2019-01-04T21:40:36.767Z,21.33
2019-01-04T21:43:22.930Z,19.67
2019-01-04T21:46:11.293Z,18.40
2019-01-04T21:48:43.746Z,19.27
2019-01-04T21:51:13.692Z,18.40
2019-01-04T21:53:46.465Z,18.97
2019-01-04T21:56:16.415Z,19.53
2019-01-04T21:59:04.771Z,18.30
2019-01-04T22:01:34.719Z,17.47
2019-01-04T22:04:07.384Z,18.20
2019-01-04T22:06:53.446Z,16.37
2019-01-04T22:09:23.393Z,17.27
2019-01-04T22:11:56.457Z,16.23
2019-01-04T22:14:29.374Z,16.13
2019-01-04T22:17:15.259Z,15.93
2019-01-04T22:19:57.068Z,15.80
2019-01-04T22:22:39.377Z,15.40
2019-01-04T22:25:15.285Z,15.33
2019-01-04T22:28:01.136Z,15.37
2019-01-04T22:30:47.171Z,12.40
2019-01-04T22:33:33.613Z,14.40
2019-01-04T22:36:03.563Z,15.97
2019-01-04T22:38:39.255Z,13.77
2019-01-04T22:41:09.213Z,14.13
2019-01-04T22:43:41.634Z,16.10
2019-01-04T22:46:27.634Z,15.27
2019-01-04T22:49:06.461Z,13.57
2019-01-04T22:51:38.879Z,16.47
2019-01-04T22:54:24.875Z,14.47
2019-01-04T22:56:54.828Z,14.90
2019-01-04T22:59:28.025Z,15.23
2019-01-04T23:02:06.718Z,12.93
2019-01-04T23:04:45.131Z,15.20
2019-01-04T23:07:18.145Z,15.03
2019-01-04T23:09:56.965Z,15.50
2019-01-04T23:12:32.395Z,14.83
2019-01-04T23:15:20.592Z,13.43
2019-01-04T23:17:50.565Z,13.23
2019-01-04T23:20:29.673Z,15.67
2019-01-04T23:23:08.634Z,15.33
2019-01-04T23:25:50.235Z,11.47
2019-01-04T23:28:36.307Z,13.23
2019-01-04T23:31:15.339Z,12.63
2019-01-04T23:33:57.100Z,12.50
2019-01-04T23:36:35.886Z,13.03
2019-01-04T23:39:09.575Z,12.30
2019-01-04T23:41:48.428Z,14.23
2019-01-04T23:44:34.286Z,11.03
2019-01-04T23:47:07.013Z,13.67
2019-01-04T23:49:36.965Z,13.00
2019-01-04T23:52:07.008Z,14.70
2019-01-04T23:54:42.899Z,11.47
2019-01-04T23:57:12.869Z,13.03
